createdAt,value
2023-03-25T00:00:28.828Z,14.77
2023-03-25T00:03:06.956Z,14.80
2023-03-25T00:05:48.953Z,14.79
2023-03-25T00:08:34.863Z,14.80
2023-03-25T00:11:06.565Z,14.80
2023-03-25T00:13:41.415Z,14.84
2023-03-25T00:16:12.259Z,14.85
2023-03-25T00:18:41.465Z,14.87
2023-03-25T00:21:11.161Z,14.90
2023-03-25T00:23:41.868Z,14.86
2023-03-25T00:26:13.798Z,14.88
2023-03-25T00:28:44.040Z,14.91
2023-03-25T00:31:19.848Z,14.89
2023-03-25T00:33:50.799Z,14.89
2023-03-25T00:36:22.153Z,14.89
2023-03-25T00:38:51.394Z,14.95
2023-03-25T00:41:25.489Z,14.93
2023-03-25T00:43:58.631Z,14.90
2023-03-25T00:46:30.191Z,14.90
2023-03-25T00:49:04.792Z,14.86
2023-03-25T00:51:53.189Z,14.88
2023-03-25T00:54:36.670Z,14.89
2023-03-25T01:00:06.539Z,14.91
2023-03-25T01:02:39.792Z,14.93
2023-03-25T01:05:34.909Z,14.97
2023-03-25T01:08:29.134Z,14.93
2023-03-25T01:13:42.804Z,14.87
2023-03-25T01:16:18.468Z,14.88
2023-03-25T01:18:46.748Z,14.93
2023-03-25T01:21:17.401Z,14.92
2023-03-25T01:23:46.584Z,14.85
2023-03-25T01:26:17.660Z,14.84
2023-03-25T01:28:51.240Z,14.82
2023-03-25T01:31:25.488Z,14.82
2023-03-25T01:33:56.605Z,14.84
2023-03-25T01:36:29.777Z,14.85
2023-03-25T01:39:04.548Z,14.84
2023-03-25T01:41:49.197Z,14.77
2023-03-25T01:45:10.373Z,14.83
2023-03-25T01:47:40.760Z,14.79
2023-03-25T01:50:15.446Z,14.83
2023-03-25T01:52:57.274Z,14.87
2023-03-25T01:58:29.147Z,14.83
2023-03-25T02:01:11.594Z,14.86
2023-03-25T02:03:58.604Z,14.87
2023-03-25T02:06:38.487Z,14.89
2023-03-25T02:09:12.452Z,14.87
2023-03-25T02:11:42.746Z,14.88
2023-03-25T02:14:20.789Z,14.93
2023-03-25T02:17:15.037Z,14.90
2023-03-25T02:20:14.890Z,14.91
2023-03-25T02:23:22.515Z,14.94
2023-03-25T02:26:21.311Z,14.92
2023-03-25T02:28:59.840Z,14.92
2023-03-25T02:31:45.461Z,14.95
2023-03-25T02:34:57.648Z,14.91
2023-03-25T02:37:59.978Z,14.88
2023-03-25T02:40:38.904Z,14.92
2023-03-25T02:43:22.437Z,14.93
2023-03-25T02:45:59.273Z,14.90
2023-03-25T02:48:35.465Z,14.93
2023-03-25T02:51:11.753Z,14.94
2023-03-25T02:53:44.521Z,14.88
2023-03-25T02:56:17.239Z,14.84
2023-03-25T02:58:47.912Z,14.88
2023-03-25T03:01:16.647Z,14.91
2023-03-25T03:03:45.308Z,14.91
2023-03-25T03:06:18.591Z,14.88
2023-03-25T03:09:13.614Z,14.91
2023-03-25T03:11:53.559Z,14.85
2023-03-25T03:14:49.677Z,14.85
2023-03-25T03:17:24.285Z,14.85
2023-03-25T03:19:57.478Z,14.88
2023-03-25T03:22:38.796Z,14.80
2023-03-25T03:25:16.606Z,14.79
2023-03-25T03:27:51.149Z,14.74
2023-03-25T03:30:23.776Z,14.74
2023-03-25T03:32:58.637Z,14.72
2023-03-25T03:35:32.863Z,14.74
2023-03-25T03:38:09.789Z,14.70
2023-03-25T03:40:47.488Z,14.65
2023-03-25T03:43:25.801Z,14.65
2023-03-25T03:46:01.868Z,14.61
2023-03-25T03:48:38.352Z,14.59
2023-03-25T03:51:25.248Z,14.62
2023-03-25T03:54:24.191Z,14.59
2023-03-25T03:57:02.146Z,14.55
2023-03-25T03:59:43.095Z,14.54
2023-03-25T04:02:19.438Z,14.54
2023-03-25T04:04:47.738Z,14.55
2023-03-25T04:07:25.178Z,14.58
2023-03-25T04:10:03.998Z,14.61
2023-03-25T04:12:46.693Z,14.56
2023-03-25T04:15:19.273Z,14.63
2023-03-25T04:17:55.450Z,14.66
2023-03-25T04:20:38.009Z,14.66
2023-03-25T04:23:06.512Z,14.73
2023-03-25T04:25:36.196Z,14.78
2023-03-25T04:28:41.367Z,14.78
2023-03-25T04:31:23.635Z,14.79
2023-03-25T04:33:54.217Z,14.84
2023-03-25T04:39:23.440Z,14.88
2023-03-25T04:41:57.950Z,14.82
2023-03-25T04:44:36.804Z,14.88
2023-03-25T04:47:38.433Z,14.86
2023-03-25T04:50:35.550Z,14.92
2023-03-25T04:53:24.436Z,14.85
2023-03-25T04:56:00.484Z,14.86
2023-03-25T04:58:48.269Z,14.87
2023-03-25T05:01:53.047Z,14.87
2023-03-25T05:07:46.537Z,14.84
2023-03-25T05:10:18.478Z,14.88
2023-03-25T05:12:47.362Z,14.87
2023-03-25T05:15:31.555Z,14.84
2023-03-25T05:18:04.240Z,14.83
2023-03-25T05:20:38.105Z,14.84
2023-03-25T05:23:12.726Z,14.84
2023-03-25T05:25:44.896Z,14.82
2023-03-25T05:28:15.656Z,14.75
2023-03-25T05:30:49.056Z,14.77
2023-03-25T05:33:24.349Z,14.84
2023-03-25T05:35:59.405Z,14.85
2023-03-25T05:38:27.884Z,14.82
2023-03-25T05:41:00.699Z,14.80
2023-03-25T05:43:43.482Z,14.79
2023-03-25T05:46:12.549Z,14.79
2023-03-25T05:48:47.616Z,14.79
2023-03-25T05:51:22.036Z,14.81
2023-03-25T05:53:51.111Z,14.75
2023-03-25T05:56:47.174Z,14.60
2023-03-25T05:59:16.787Z,14.41
2023-03-25T06:05:06.770Z,14.20
2023-03-25T06:08:02.166Z,14.17
2023-03-25T06:10:31.937Z,14.15
2023-03-25T06:13:01.304Z,14.20
2023-03-25T06:15:34.218Z,14.28
2023-03-25T06:18:03.216Z,14.27
2023-03-25T06:23:19.350Z,14.35
2023-03-25T06:25:50.153Z,14.40
2023-03-25T06:28:20.032Z,14.46
2023-03-25T06:31:15.413Z,14.54
2023-03-25T06:33:55.777Z,14.51
2023-03-25T06:36:25.821Z,14.58
2023-03-25T06:38:58.833Z,14.62
2023-03-25T06:41:38.107Z,14.63
2023-03-25T06:44:08.718Z,14.64
2023-03-25T06:47:15.148Z,14.65
2023-03-25T06:49:49.784Z,14.49
2023-03-25T06:53:07.090Z,14.46
2023-03-25T06:56:05.636Z,14.38
2023-03-25T06:58:35.824Z,14.36
2023-03-25T07:01:07.693Z,14.40
2023-03-25T07:03:46.400Z,14.40
2023-03-25T07:06:18.847Z,14.46
2023-03-25T07:08:55.437Z,14.49
2023-03-25T07:17:10.624Z,14.61
2023-03-25T07:19:39.173Z,14.67
2023-03-25T07:22:08.342Z,14.70
2023-03-25T07:24:48.072Z,14.77
2023-03-25T07:27:17.749Z,14.83
2023-03-25T07:29:46.780Z,14.84
2023-03-25T07:32:19.099Z,14.91
2023-03-25T07:34:48.966Z,14.93
2023-03-25T07:37:18.241Z,14.97
2023-03-25T07:39:47.307Z,14.98
2023-03-25T07:42:18.721Z,14.94
2023-03-25T07:44:49.268Z,15.01
2023-03-25T07:47:19.205Z,15.03
2023-03-25T07:49:50.249Z,15.05
2023-03-25T07:52:18.662Z,15.11
2023-03-25T07:54:47.247Z,15.10
2023-03-25T07:57:15.816Z,15.11
2023-03-25T07:59:46.056Z,15.15
2023-03-25T08:02:17.060Z,15.16
2023-03-25T08:04:49.888Z,15.17
2023-03-25T08:07:18.826Z,15.22
2023-03-25T08:09:47.450Z,15.24
2023-03-25T08:12:16.457Z,15.27
2023-03-25T08:14:47.413Z,15.24
2023-03-25T08:17:20.596Z,15.20
2023-03-25T08:19:58.270Z,15.17
2023-03-25T08:22:27.627Z,15.15
2023-03-25T08:24:56.593Z,15.22
2023-03-25T08:27:28.082Z,15.18
2023-03-25T08:30:00.218Z,15.24
2023-03-25T08:32:29.677Z,15.29
2023-03-25T08:37:43.585Z,15.38
2023-03-25T08:40:12.661Z,15.40
2023-03-25T08:42:41.148Z,15.44
2023-03-25T08:45:11.229Z,15.49
2023-03-25T08:47:40.193Z,15.51
2023-03-25T08:50:11.130Z,15.53
2023-03-25T08:52:42.592Z,15.65
2023-03-25T08:55:16.512Z,15.67
2023-03-25T08:57:47.347Z,15.60
2023-03-25T09:00:19.019Z,15.66
2023-03-25T09:02:52.335Z,15.74
2023-03-25T09:05:21.481Z,15.76
2023-03-25T09:46:05.528Z,16.33
2023-03-25T09:48:40.076Z,16.40
2023-03-25T09:51:14.774Z,16.54
2023-03-25T09:53:50.376Z,16.65
2023-03-25T09:56:22.816Z,16.65
2023-03-25T09:58:54.001Z,16.71
2023-03-25T10:01:35.187Z,16.84
2023-03-25T10:04:29.132Z,16.91
2023-03-25T10:07:05.412Z,16.88
2023-03-25T10:09:46.809Z,16.82
2023-03-25T10:12:30.276Z,16.68
2023-03-25T10:15:25.266Z,16.12
2023-03-25T13:01:15.375Z,17.70
2023-03-25T15:13:04.899Z,18.94
2023-03-25T15:24:15.757Z,18.80
2023-03-25T15:30:05.916Z,17.89
2023-03-25T15:32:50.115Z,17.65
2023-03-25T22:28:42.506Z,14.94
2023-03-25T22:31:14.074Z,14.95
2023-03-25T22:33:46.565Z,14.92
2023-03-25T22:36:17.635Z,14.90
2023-03-25T22:38:51.675Z,14.85
2023-03-25T22:41:22.839Z,14.76
2023-03-25T22:43:56.001Z,14.65
2023-03-25T22:46:28.395Z,14.58
2023-03-25T22:49:05.680Z,14.45
2023-03-25T22:51:34.366Z,14.30
2023-03-25T22:56:48.267Z,14.03
2023-03-25T22:59:18.875Z,13.84
